sensor_id;sensor_type;location;lat;lon;timestamp;P1;durP1;ratioP1;P2;durP2;ratioP2
11675;SDS011;5894;42.768;23.404;2023-08-12T00:01:39;4.43;;;3.70;;
11675;SDS011;5894;42.768;23.404;2023-08-12T00:04:06;3.75;;;3.45;;
11675;SDS011;5894;42.768;23.404;2023-08-12T00:06:33;3.80;;;3.42;;
11675;SDS011;5894;42.768;23.404;2023-08-12T00:09:01;4.57;;;3.28;;
11675;SDS011;5894;42.768;23.404;2023-08-12T00:11:29;5.30;;;3.70;;
11675;SDS011;5894;42.768;23.404;2023-08-12T00:13:57;5.07;;;3.78;;
11675;SDS011;5894;42.768;23.404;2023-08-12T00:16:24;3.75;;;3.45;;
11675;SDS011;5894;42.768;23.404;2023-08-12T00:18:51;4.53;;;3.50;;
11675;SDS011;5894;42.768;23.404;2023-08-12T00:21:18;5.32;;;3.60;;
11675;SDS011;5894;42.768;23.404;2023-08-12T00:23:48;4.70;;;3.75;;
11675;SDS011;5894;42.768;23.404;2023-08-12T00:26:16;4.18;;;3.78;;
11675;SDS011;5894;42.768;23.404;2023-08-12T00:28:43;4.70;;;4.00;;
11675;SDS011;5894;42.768;23.404;2023-08-12T00:31:11;3.90;;;3.60;;
11675;SDS011;5894;42.768;23.404;2023-08-12T00:33:38;4.18;;;3.80;;
11675;SDS011;5894;42.768;23.404;2023-08-12T00:36:05;5.03;;;3.90;;
11675;SDS011;5894;42.768;23.404;2023-08-12T00:38:32;4.88;;;3.65;;
11675;SDS011;5894;42.768;23.404;2023-08-12T00:41:01;4.00;;;3.60;;
11675;SDS011;5894;42.768;23.404;2023-08-12T00:43:28;4.03;;;3.60;;
11675;SDS011;5894;42.768;23.404;2023-08-12T00:45:55;4.00;;;3.60;;
11675;SDS011;5894;42.768;23.404;2023-08-12T00:48:24;4.15;;;3.75;;
11675;SDS011;5894;42.768;23.404;2023-08-12T00:50:52;3.70;;;3.40;;
11675;SDS011;5894;42.768;23.404;2023-08-12T00:53:19;4.40;;;3.30;;
11675;SDS011;5894;42.768;23.404;2023-08-12T00:55:47;5.22;;;3.70;;
11675;SDS011;5894;42.768;23.404;2023-08-12T00:58:15;4.45;;;3.47;;
11675;SDS011;5894;42.768;23.404;2023-08-12T01:00:45;4.47;;;3.65;;
11675;SDS011;5894;42.768;23.404;2023-08-12T01:03:12;4.05;;;3.33;;
11675;SDS011;5894;42.768;23.404;2023-08-12T01:05:41;3.88;;;3.47;;
11675;SDS011;5894;42.768;23.404;2023-08-12T01:08:09;5.60;;;3.63;;
11675;SDS011;5894;42.768;23.404;2023-08-12T01:10:36;3.55;;;3.25;;
11675;SDS011;5894;42.768;23.404;2023-08-12T01:13:11;3.50;;;3.20;;
11675;SDS011;5894;42.768;23.404;2023-08-12T01:15:48;4.13;;;3.72;;
11675;SDS011;5894;42.768;23.404;2023-08-12T01:18:19;4.10;;;3.30;;
11675;SDS011;5894;42.768;23.404;2023-08-12T01:20:48;4.18;;;3.60;;
11675;SDS011;5894;42.768;23.404;2023-08-12T01:23:20;9.25;;;3.72;;
11675;SDS011;5894;42.768;23.404;2023-08-12T01:25:48;8.82;;;4.28;;
11675;SDS011;5894;42.768;23.404;2023-08-12T01:28:15;3.78;;;3.40;;
11675;SDS011;5894;42.768;23.404;2023-08-12T01:30:46;5.38;;;3.78;;
11675;SDS011;5894;42.768;23.404;2023-08-12T01:33:19;6.43;;;3.58;;
11675;SDS011;5894;42.768;23.404;2023-08-12T01:35:53;3.58;;;3.28;;
11675;SDS011;5894;42.768;23.404;2023-08-12T01:38:28;3.50;;;3.20;;
11675;SDS011;5894;42.768;23.404;2023-08-12T01:41:00;3.60;;;3.30;;
11675;SDS011;5894;42.768;23.404;2023-08-12T01:43:28;5.53;;;3.35;;
11675;SDS011;5894;42.768;23.404;2023-08-12T01:45:56;3.55;;;3.10;;
11675;SDS011;5894;42.768;23.404;2023-08-12T01:48:24;3.83;;;3.42;;
11675;SDS011;5894;42.768;23.404;2023-08-12T01:50:51;4.10;;;3.70;;
11675;SDS011;5894;42.768;23.404;2023-08-12T01:53:18;3.95;;;2.83;;
11675;SDS011;5894;42.768;23.404;2023-08-12T01:55:48;3.53;;;3.17;;
11675;SDS011;5894;42.768;23.404;2023-08-12T01:58:16;3.85;;;3.33;;
11675;SDS011;5894;42.768;23.404;2023-08-12T02:00:43;4.50;;;3.15;;
11675;SDS011;5894;42.768;23.404;2023-08-12T02:03:10;5.13;;;3.60;;
11675;SDS011;5894;42.768;23.404;2023-08-12T02:05:37;3.30;;;3.00;;
11675;SDS011;5894;42.768;23.404;2023-08-12T02:08:06;3.83;;;3.42;;
11675;SDS011;5894;42.768;23.404;2023-08-12T02:10:34;3.97;;;3.58;;
11675;SDS011;5894;42.768;23.404;2023-08-12T02:13:03;3.83;;;3.20;;
11675;SDS011;5894;42.768;23.404;2023-08-12T02:15:31;3.90;;;3.10;;
11675;SDS011;5894;42.768;23.404;2023-08-12T02:18:01;3.78;;;3.38;;
11675;SDS011;5894;42.768;23.404;2023-08-12T02:20:29;5.28;;;3.40;;
11675;SDS011;5894;42.768;23.404;2023-08-12T02:22:56;3.55;;;3.20;;
11675;SDS011;5894;42.768;23.404;2023-08-12T02:25:23;3.72;;;2.88;;
11675;SDS011;5894;42.768;23.404;2023-08-12T02:27:50;3.10;;;2.80;;
11675;SDS011;5894;42.768;23.404;2023-08-12T02:30:20;4.93;;;3.22;;
11675;SDS011;5894;42.768;23.404;2023-08-12T02:32:47;3.78;;;3.15;;
11675;SDS011;5894;42.768;23.404;2023-08-12T02:35:15;4.40;;;2.83;;
11675;SDS011;5894;42.768;23.404;2023-08-12T02:37:43;3.45;;;3.15;;
11675;SDS011;5894;42.768;23.404;2023-08-12T02:40:11;4.18;;;3.08;;
11675;SDS011;5894;42.768;23.404;2023-08-12T02:42:38;4.72;;;3.10;;
11675;SDS011;5894;42.768;23.404;2023-08-12T02:45:05;4.82;;;3.00;;
11675;SDS011;5894;42.768;23.404;2023-08-12T02:47:34;3.13;;;2.83;;
11675;SDS011;5894;42.768;23.404;2023-08-12T02:50:02;3.33;;;3.03;;
11675;SDS011;5894;42.768;23.404;2023-08-12T02:52:30;4.95;;;2.97;;
11675;SDS011;5894;42.768;23.404;2023-08-12T02:54:57;3.90;;;2.80;;
11675;SDS011;5894;42.768;23.404;2023-08-12T02:57:24;4.57;;;2.80;;
11675;SDS011;5894;42.768;23.404;2023-08-12T02:59:54;4.95;;;3.10;;
11675;SDS011;5894;42.768;23.404;2023-08-12T03:02:23;3.17;;;2.88;;
11675;SDS011;5894;42.768;23.404;2023-08-12T03:04:55;3.38;;;3.00;;
11675;SDS011;5894;42.768;23.404;2023-08-12T03:07:25;4.30;;;3.20;;
11675;SDS011;5894;42.768;23.404;2023-08-12T03:09:52;3.28;;;2.85;;
11675;SDS011;5894;42.768;23.404;2023-08-12T03:12:19;3.45;;;3.10;;
11675;SDS011;5894;42.768;23.404;2023-08-12T03:14:46;3.55;;;2.97;;
11675;SDS011;5894;42.768;23.404;2023-08-12T03:17:13;5.07;;;3.30;;
11675;SDS011;5894;42.768;23.404;2023-08-12T03:19:41;6.47;;;3.30;;
11675;SDS011;5894;42.768;23.404;2023-08-12T03:22:13;3.95;;;3.22;;
11675;SDS011;5894;42.768;23.404;2023-08-12T03:24:41;13.27;;;3.80;;
11675;SDS011;5894;42.768;23.404;2023-08-12T03:27:09;7.80;;;3.30;;
11675;SDS011;5894;42.768;23.404;2023-08-12T03:29:37;6.03;;;3.20;;
11675;SDS011;5894;42.768;23.404;2023-08-12T03:32:04;5.10;;;3.10;;
11675;SDS011;5894;42.768;23.404;2023-08-12T03:34:31;3.38;;;3.08;;
11675;SDS011;5894;42.768;23.404;2023-08-12T03:36:58;3.35;;;3.05;;
11675;SDS011;5894;42.768;23.404;2023-08-12T03:39:27;3.75;;;3.00;;
11675;SDS011;5894;42.768;23.404;2023-08-12T03:41:56;4.00;;;3.42;;
11675;SDS011;5894;42.768;23.404;2023-08-12T03:44:23;5.10;;;3.38;;
11675;SDS011;5894;42.768;23.404;2023-08-12T03:46:51;3.75;;;3.28;;
11675;SDS011;5894;42.768;23.404;2023-08-12T03:49:18;4.30;;;3.45;;
11675;SDS011;5894;42.768;23.404;2023-08-12T03:51:46;4.88;;;3.40;;
11675;SDS011;5894;42.768;23.404;2023-08-12T03:54:13;4.38;;;3.40;;
11675;SDS011;5894;42.768;23.404;2023-08-12T03:56:42;6.00;;;3.65;;
11675;SDS011;5894;42.768;23.404;2023-08-12T03:59:09;4.57;;;3.78;;
11675;SDS011;5894;42.768;23.404;2023-08-12T04:01:37;3.90;;;3.50;;
11675;SDS011;5894;42.768;23.404;2023-08-12T04:04:04;6.18;;;3.40;;
11675;SDS011;5894;42.768;23.404;2023-08-12T04:06:31;4.97;;;3.60;;
11675;SDS011;5894;42.768;23.404;2023-08-12T04:08:59;4.75;;;3.60;;
11675;SDS011;5894;42.768;23.404;2023-08-12T04:11:26;4.75;;;3.38;;
11675;SDS011;5894;42.768;23.404;2023-08-12T04:13:55;3.92;;;3.58;;
11675;SDS011;5894;42.768;23.404;2023-08-12T04:16:22;4.97;;;4.10;;
11675;SDS011;5894;42.768;23.404;2023-08-12T04:18:49;4.13;;;3.75;;
11675;SDS011;5894;42.768;23.404;2023-08-12T04:21:16;4.03;;;3.63;;
11675;SDS011;5894;42.768;23.404;2023-08-12T04:23:43;5.38;;;4.05;;
11675;SDS011;5894;42.768;23.404;2023-08-12T04:26:11;6.75;;;3.92;;
11675;SDS011;5894;42.768;23.404;2023-08-12T04:28:39;4.80;;;3.78;;
11675;SDS011;5894;42.768;23.404;2023-08-12T04:31:08;7.40;;;4.07;;
11675;SDS011;5894;42.768;23.404;2023-08-12T04:33:37;4.38;;;3.92;;
11675;SDS011;5894;42.768;23.404;2023-08-12T04:36:05;5.18;;;4.00;;
11675;SDS011;5894;42.768;23.404;2023-08-12T04:38:32;6.57;;;3.97;;
11675;SDS011;5894;42.768;23.404;2023-08-12T04:41:04;4.05;;;3.75;;
11675;SDS011;5894;42.768;23.404;2023-08-12T04:43:31;4.53;;;3.83;;
11675;SDS011;5894;42.768;23.404;2023-08-12T04:45:59;5.35;;;3.90;;
11675;SDS011;5894;42.768;23.404;2023-08-12T04:48:28;10.48;;;4.28;;
11675;SDS011;5894;42.768;23.404;2023-08-12T04:50:55;7.75;;;4.35;;
11675;SDS011;5894;42.768;23.404;2023-08-12T04:53:25;7.82;;;4.45;;
11675;SDS011;5894;42.768;23.404;2023-08-12T04:55:54;6.25;;;4.30;;
11675;SDS011;5894;42.768;23.404;2023-08-12T04:58:21;4.88;;;4.15;;
11675;SDS011;5894;42.768;23.404;2023-08-12T05:00:50;4.95;;;4.40;;
11675;SDS011;5894;42.768;23.404;2023-08-12T05:03:20;6.25;;;4.45;;
11675;SDS011;5894;42.768;23.404;2023-08-12T05:05:51;4.72;;;4.28;;
11675;SDS011;5894;42.768;23.404;2023-08-12T05:08:22;4.70;;;4.30;;
11675;SDS011;5894;42.768;23.404;2023-08-12T05:10:50;6.07;;;4.30;;
11675;SDS011;5894;42.768;23.404;2023-08-12T05:13:17;5.63;;;4.38;;
11675;SDS011;5894;42.768;23.404;2023-08-12T05:15:45;5.07;;;4.28;;
11675;SDS011;5894;42.768;23.404;2023-08-12T05:18:14;4.90;;;4.47;;
11675;SDS011;5894;42.768;23.404;2023-08-12T05:20:41;7.55;;;5.70;;
11675;SDS011;5894;42.768;23.404;2023-08-12T05:23:10;6.28;;;5.70;;
11675;SDS011;5894;42.768;23.404;2023-08-12T05:25:38;6.78;;;5.30;;
11675;SDS011;5894;42.768;23.404;2023-08-12T05:28:06;5.32;;;4.80;;
11675;SDS011;5894;42.768;23.404;2023-08-12T05:30:33;6.13;;;4.45;;
11675;SDS011;5894;42.768;23.404;2023-08-12T05:33:01;6.18;;;4.68;;
11675;SDS011;5894;42.768;23.404;2023-08-12T05:35:28;4.90;;;4.05;;
11675;SDS011;5894;42.768;23.404;2023-08-12T05:37:55;6.45;;;4.47;;
11675;SDS011;5894;42.768;23.404;2023-08-12T05:40:23;5.15;;;4.15;;
11675;SDS011;5894;42.768;23.404;2023-08-12T05:42:51;5.28;;;4.70;;
11675;SDS011;5894;42.768;23.404;2023-08-12T05:45:18;9.57;;;5.30;;
11675;SDS011;5894;42.768;23.404;2023-08-12T05:47:44;10.25;;;5.35;;
11675;SDS011;5894;42.768;23.404;2023-08-12T05:50:12;7.10;;;5.30;;
11675;SDS011;5894;42.768;23.404;2023-08-12T05:52:39;6.03;;;5.10;;
11675;SDS011;5894;42.768;23.404;2023-08-12T05:55:06;5.10;;;4.60;;
11675;SDS011;5894;42.768;23.404;2023-08-12T05:57:35;5.47;;;4.97;;
11675;SDS011;5894;42.768;23.404;2023-08-12T06:00:02;11.15;;;5.30;;
11675;SDS011;5894;42.768;23.404;2023-08-12T06:02:36;5.82;;;4.70;;
11675;SDS011;5894;42.768;23.404;2023-08-12T06:05:04;5.43;;;4.57;;
11675;SDS011;5894;42.768;23.404;2023-08-12T06:07:32;6.43;;;5.25;;
11675;SDS011;5894;42.768;23.404;2023-08-12T06:09:59;6.20;;;5.15;;
11675;SDS011;5894;42.768;23.404;2023-08-12T06:12:27;6.35;;;5.75;;
11675;SDS011;5894;42.768;23.404;2023-08-12T06:14:55;8.35;;;5.32;;
11675;SDS011;5894;42.768;23.404;2023-08-12T06:17:23;6.18;;;5.32;;
11675;SDS011;5894;42.768;23.404;2023-08-12T06:19:50;7.93;;;5.15;;
11675;SDS011;5894;42.768;23.404;2023-08-12T06:22:20;5.20;;;4.72;;
11675;SDS011;5894;42.768;23.404;2023-08-12T06:24:47;5.65;;;4.88;;
11675;SDS011;5894;42.768;23.404;2023-08-12T06:27:14;4.78;;;4.38;;
11675;SDS011;5894;42.768;23.404;2023-08-12T06:29:41;5.30;;;4.80;;
11675;SDS011;5894;42.768;23.404;2023-08-12T06:32:10;5.20;;;4.78;;
11675;SDS011;5894;42.768;23.404;2023-08-12T06:34:39;5.65;;;4.45;;
11675;SDS011;5894;42.768;23.404;2023-08-12T06:37:07;6.47;;;4.60;;
11675;SDS011;5894;42.768;23.404;2023-08-12T06:39:34;4.80;;;4.40;;
11675;SDS011;5894;42.768;23.404;2023-08-12T06:42:01;5.85;;;4.22;;
11675;SDS011;5894;42.768;23.404;2023-08-12T06:44:29;4.85;;;4.32;;
11675;SDS011;5894;42.768;23.404;2023-08-12T06:46:56;5.43;;;4.20;;
11675;SDS011;5894;42.768;23.404;2023-08-12T06:49:25;4.93;;;4.28;;
11675;SDS011;5894;42.768;23.404;2023-08-12T06:51:52;4.10;;;3.70;;
11675;SDS011;5894;42.768;23.404;2023-08-12T06:54:19;4.03;;;3.70;;
11675;SDS011;5894;42.768;23.404;2023-08-12T06:56:48;4.60;;;4.00;;
11675;SDS011;5894;42.768;23.404;2023-08-12T06:59:15;4.30;;;3.90;;
11675;SDS011;5894;42.768;23.404;2023-08-12T07:01:43;4.43;;;3.88;;
11675;SDS011;5894;42.768;23.404;2023-08-12T07:04:10;3.85;;;3.45;;
11675;SDS011;5894;42.768;23.404;2023-08-12T07:06:39;4.10;;;3.70;;
11675;SDS011;5894;42.768;23.404;2023-08-12T07:09:06;5.22;;;3.53;;
11675;SDS011;5894;42.768;23.404;2023-08-12T07:11:33;5.53;;;3.83;;
11675;SDS011;5894;42.768;23.404;2023-08-12T07:14:00;3.92;;;3.53;;
11675;SDS011;5894;42.768;23.404;2023-08-12T07:16:27;5.03;;;3.70;;
11675;SDS011;5894;42.768;23.404;2023-08-12T07:18:54;5.03;;;3.55;;
11675;SDS011;5894;42.768;23.404;2023-08-12T07:21:21;7.05;;;3.50;;
11675;SDS011;5894;42.768;23.404;2023-08-12T07:23:53;32.95;;;5.15;;
11675;SDS011;5894;42.768;23.404;2023-08-12T07:26:20;16.42;;;6.20;;
11675;SDS011;5894;42.768;23.404;2023-08-12T07:28:47;33.08;;;13.40;;
11675;SDS011;5894;42.768;23.404;2023-08-12T07:31:14;6.53;;;4.07;;
11675;SDS011;5894;42.768;23.404;2023-08-12T07:33:42;8.48;;;4.15;;
11675;SDS011;5894;42.768;23.404;2023-08-12T07:36:09;8.07;;;3.40;;
11675;SDS011;5894;42.768;23.404;2023-08-12T07:38:36;3.25;;;2.95;;
11675;SDS011;5894;42.768;23.404;2023-08-12T07:41:05;15.15;;;3.58;;
11675;SDS011;5894;42.768;23.404;2023-08-12T07:43:32;7.25;;;3.30;;
11675;SDS011;5894;42.768;23.404;2023-08-12T07:45:59;8.95;;;3.10;;
11675;SDS011;5894;42.768;23.404;2023-08-12T07:48:26;3.30;;;3.00;;
11675;SDS011;5894;42.768;23.404;2023-08-12T07:50:56;4.60;;;2.70;;
11675;SDS011;5894;42.768;23.404;2023-08-12T07:53:24;5.45;;;2.90;;
11675;SDS011;5894;42.768;23.404;2023-08-12T07:55:54;3.65;;;2.95;;
11675;SDS011;5894;42.768;23.404;2023-08-12T07:58:22;4.50;;;2.55;;
11675;SDS011;5894;42.768;23.404;2023-08-12T08:00:51;4.40;;;2.60;;
11675;SDS011;5894;42.768;23.404;2023-08-12T08:03:19;7.78;;;2.67;;
11675;SDS011;5894;42.768;23.404;2023-08-12T08:05:46;4.43;;;2.60;;
11675;SDS011;5894;42.768;23.404;2023-08-12T08:08:13;2.67;;;2.45;;
11675;SDS011;5894;42.768;23.404;2023-08-12T08:10:40;3.72;;;2.42;;
11675;SDS011;5894;42.768;23.404;2023-08-12T08:13:08;2.80;;;2.50;;
11675;SDS011;5894;42.768;23.404;2023-08-12T08:15:37;6.38;;;2.67;;
11675;SDS011;5894;42.768;23.404;2023-08-12T08:18:04;2.83;;;2.30;;
11675;SDS011;5894;42.768;23.404;2023-08-12T08:20:31;2.90;;;2.60;;
11675;SDS011;5894;42.768;23.404;2023-08-12T08:23:01;4.43;;;2.85;;
11675;SDS011;5894;42.768;23.404;2023-08-12T08:25:29;3.85;;;2.65;;
11675;SDS011;5894;42.768;23.404;2023-08-12T08:27:56;4.05;;;2.25;;
11675;SDS011;5894;42.768;23.404;2023-08-12T08:30:23;2.83;;;2.33;;
11675;SDS011;5894;42.768;23.404;2023-08-12T08:32:52;3.42;;;2.40;;
11675;SDS011;5894;42.768;23.404;2023-08-12T08:35:19;2.50;;;2.30;;
11675;SDS011;5894;42.768;23.404;2023-08-12T08:37:47;2.88;;;2.40;;
11675;SDS011;5894;42.768;23.404;2023-08-12T08:40:14;2.60;;;2.40;;
11675;SDS011;5894;42.768;23.404;2023-08-12T08:42:41;2.40;;;2.20;;
11675;SDS011;5894;42.768;23.404;2023-08-12T08:45:12;2.80;;;2.60;;
11675;SDS011;5894;42.768;23.404;2023-08-12T08:47:41;2.67;;;2.42;;
11675;SDS011;5894;42.768;23.404;2023-08-12T08:50:10;6.10;;;2.47;;
11675;SDS011;5894;42.768;23.404;2023-08-12T08:52:39;3.20;;;2.20;;
11675;SDS011;5894;42.768;23.404;2023-08-12T08:55:08;5.70;;;2.45;;
11675;SDS011;5894;42.768;23.404;2023-08-12T08:57:38;4.78;;;2.20;;
11675;SDS011;5894;42.768;23.404;2023-08-12T09:00:07;3.08;;;2.30;;
11675;SDS011;5894;42.768;23.404;2023-08-12T09:02:36;2.50;;;2.30;;
11675;SDS011;5894;42.768;23.404;2023-08-12T09:05:05;4.38;;;2.25;;
11675;SDS011;5894;42.768;23.404;2023-08-12T09:07:35;2.70;;;2.13;;
11675;SDS011;5894;42.768;23.404;2023-08-12T09:10:02;5.40;;;2.70;;
11675;SDS011;5894;42.768;23.404;2023-08-12T09:12:30;2.92;;;2.20;;
11675;SDS011;5894;42.768;23.404;2023-08-12T09:14:58;2.70;;;2.40;;
11675;SDS011;5894;42.768;23.404;2023-08-12T09:17:28;4.82;;;3.28;;
11675;SDS011;5894;42.768;23.404;2023-08-12T09:19:55;3.83;;;2.38;;
11675;SDS011;5894;42.768;23.404;2023-08-12T09:22:24;2.72;;;2.33;;
11675;SDS011;5894;42.768;23.404;2023-08-12T09:24:57;5.72;;;2.78;;
11675;SDS011;5894;42.768;23.404;2023-08-12T09:27:24;3.50;;;2.78;;
11675;SDS011;5894;42.768;23.404;2023-08-12T09:29:55;4.68;;;3.72;;
11675;SDS011;5894;42.768;23.404;2023-08-12T09:32:23;5.78;;;4.88;;
11675;SDS011;5894;42.768;23.404;2023-08-12T09:34:52;3.70;;;2.95;;
11675;SDS011;5894;42.768;23.404;2023-08-12T09:37:24;6.00;;;3.13;;
11675;SDS011;5894;42.768;23.404;2023-08-12T09:39:51;2.47;;;2.28;;
11675;SDS011;5894;42.768;23.404;2023-08-12T09:42:20;3.08;;;2.78;;
11675;SDS011;5894;42.768;23.404;2023-08-12T09:44:47;8.13;;;3.25;;
11675;SDS011;5894;42.768;23.404;2023-08-12T09:47:14;9.95;;;2.85;;
11675;SDS011;5894;42.768;23.404;2023-08-12T09:49:41;7.53;;;3.22;;
11675;SDS011;5894;42.768;23.404;2023-08-12T09:52:08;7.55;;;6.70;;
11675;SDS011;5894;42.768;23.404;2023-08-12T09:54:35;4.70;;;3.35;;
11675;SDS011;5894;42.768;23.404;2023-08-12T09:57:04;9.13;;;3.78;;
11675;SDS011;5894;42.768;23.404;2023-08-12T09:59:34;7.20;;;2.67;;
11675;SDS011;5894;42.768;23.404;2023-08-12T10:02:02;3.40;;;2.38;;
11675;SDS011;5894;42.768;23.404;2023-08-12T10:04:33;2.60;;;2.35;;
11675;SDS011;5894;42.768;23.404;2023-08-12T10:07:05;5.00;;;2.30;;
11675;SDS011;5894;42.768;23.404;2023-08-12T10:09:33;3.03;;;2.30;;
11675;SDS011;5894;42.768;23.404;2023-08-12T10:12:01;2.60;;;2.40;;
11675;SDS011;5894;42.768;23.404;2023-08-12T10:14:29;2.78;;;2.53;;
11675;SDS011;5894;42.768;23.404;2023-08-12T10:16:58;2.60;;;2.40;;
11675;SDS011;5894;42.768;23.404;2023-08-12T10:19:26;2.83;;;2.08;;
11675;SDS011;5894;42.768;23.404;2023-08-12T10:21:54;3.00;;;2.35;;
11675;SDS011;5894;42.768;23.404;2023-08-12T10:24:23;3.00;;;2.65;;
11675;SDS011;5894;42.768;23.404;2023-08-12T10:26:52;3.13;;;2.40;;
11675;SDS011;5894;42.768;23.404;2023-08-12T10:29:20;4.90;;;2.38;;
11675;SDS011;5894;42.768;23.404;2023-08-12T10:31:49;2.50;;;2.30;;
11675;SDS011;5894;42.768;23.404;2023-08-12T10:34:21;2.40;;;2.20;;
11675;SDS011;5894;42.768;23.404;2023-08-12T10:36:53;6.65;;;2.53;;
11675;SDS011;5894;42.768;23.404;2023-08-12T10:39:21;5.50;;;3.55;;
11675;SDS011;5894;42.768;23.404;2023-08-12T10:41:52;18.23;;;8.48;;
11675;SDS011;5894;42.768;23.404;2023-08-12T10:44:26;5.75;;;3.92;;
11675;SDS011;5894;42.768;23.404;2023-08-12T10:46:54;7.72;;;5.07;;
11675;SDS011;5894;42.768;23.404;2023-08-12T10:49:23;2.90;;;2.40;;
11675;SDS011;5894;42.768;23.404;2023-08-12T10:51:51;2.58;;;2.30;;
11675;SDS011;5894;42.768;23.404;2023-08-12T10:54:21;3.20;;;2.28;;
11675;SDS011;5894;42.768;23.404;2023-08-12T10:57:08;2.30;;;2.10;;
11675;SDS011;5894;42.768;23.404;2023-08-12T10:59:47;2.30;;;2.10;;
11675;SDS011;5894;42.768;23.404;2023-08-12T11:02:19;2.30;;;2.10;;
11675;SDS011;5894;42.768;23.404;2023-08-12T11:04:51;3.75;;;2.08;;
11675;SDS011;5894;42.768;23.404;2023-08-12T11:07:20;4.20;;;2.20;;
11675;SDS011;5894;42.768;23.404;2023-08-12T11:09:52;5.95;;;2.47;;
11675;SDS011;5894;42.768;23.404;2023-08-12T11:12:27;2.92;;;2.50;;
11675;SDS011;5894;42.768;23.404;2023-08-12T11:14:57;3.58;;;2.08;;
11675;SDS011;5894;42.768;23.404;2023-08-12T11:17:35;7.78;;;2.38;;
11675;SDS011;5894;42.768;23.404;2023-08-12T11:20:05;4.15;;;2.00;;
11675;SDS011;5894;42.768;23.404;2023-08-12T11:22:35;2.25;;;2.05;;
11675;SDS011;5894;42.768;23.404;2023-08-12T11:25:04;3.10;;;2.67;;
11675;SDS011;5894;42.768;23.404;2023-08-12T11:27:37;4.75;;;3.63;;
11675;SDS011;5894;42.768;23.404;2023-08-12T11:30:06;4.40;;;2.63;;
11675;SDS011;5894;42.768;23.404;2023-08-12T11:32:35;2.40;;;2.20;;
11675;SDS011;5894;42.768;23.404;2023-08-12T11:35:05;2.33;;;2.00;;
11675;SDS011;5894;42.768;23.404;2023-08-12T11:37:34;1.90;;;1.80;;
11675;SDS011;5894;42.768;23.404;2023-08-12T11:40:02;2.03;;;1.90;;
11675;SDS011;5894;42.768;23.404;2023-08-12T11:42:30;3.10;;;2.30;;
11675;SDS011;5894;42.768;23.404;2023-08-12T11:44:57;4.18;;;2.20;;
11675;SDS011;5894;42.768;23.404;2023-08-12T11:47:24;2.70;;;2.40;;
11675;SDS011;5894;42.768;23.404;2023-08-12T11:49:52;5.85;;;2.45;;
11675;SDS011;5894;42.768;23.404;2023-08-12T11:52:21;4.18;;;2.22;;
11675;SDS011;5894;42.768;23.404;2023-08-12T11:54:49;3.33;;;2.80;;
11675;SDS011;5894;42.768;23.404;2023-08-12T11:57:16;3.10;;;2.80;;
11675;SDS011;5894;42.768;23.404;2023-08-12T11:59:43;2.97;;;2.78;;
11675;SDS011;5894;42.768;23.404;2023-08-12T12:02:11;5.05;;;2.10;;
11675;SDS011;5894;42.768;23.404;2023-08-12T12:04:40;2.88;;;2.55;;
11675;SDS011;5894;42.768;23.404;2023-08-12T12:07:18;3.03;;;2.65;;
11675;SDS011;5894;42.768;23.404;2023-08-12T12:09:50;4.15;;;2.20;;
11675;SDS011;5894;42.768;23.404;2023-08-12T12:12:21;3.47;;;2.38;;
11675;SDS011;5894;42.768;23.404;2023-08-12T12:14:50;1.92;;;1.73;;
11675;SDS011;5894;42.768;23.404;2023-08-12T12:17:18;3.05;;;2.00;;
11675;SDS011;5894;42.768;23.404;2023-08-12T12:19:47;4.35;;;1.80;;
11675;SDS011;5894;42.768;23.404;2023-08-12T12:22:18;2.75;;;1.90;;
11675;SDS011;5894;42.768;23.404;2023-08-12T12:24:46;2.85;;;1.90;;
11675;SDS011;5894;42.768;23.404;2023-08-12T12:27:14;2.42;;;1.95;;
11675;SDS011;5894;42.768;23.404;2023-08-12T12:29:41;3.95;;;2.17;;
11675;SDS011;5894;42.768;23.404;2023-08-12T12:32:08;2.20;;;2.00;;
11675;SDS011;5894;42.768;23.404;2023-08-12T12:34:35;2.38;;;2.17;;
11675;SDS011;5894;42.768;23.404;2023-08-12T12:37:04;2.20;;;2.00;;
11675;SDS011;5894;42.768;23.404;2023-08-12T12:39:31;4.35;;;2.38;;
11675;SDS011;5894;42.768;23.404;2023-08-12T12:42:01;3.05;;;1.90;;
11675;SDS011;5894;42.768;23.404;2023-08-12T12:44:28;3.67;;;2.08;;
11675;SDS011;5894;42.768;23.404;2023-08-12T12:46:55;2.15;;;1.90;;
11675;SDS011;5894;42.768;23.404;2023-08-12T12:49:22;3.30;;;1.60;;
11675;SDS011;5894;42.768;23.404;2023-08-12T12:51:49;5.47;;;1.98;;
11675;SDS011;5894;42.768;23.404;2023-08-12T12:54:17;2.22;;;1.70;;
11675;SDS011;5894;42.768;23.404;2023-08-12T12:56:44;2.05;;;1.75;;
11675;SDS011;5894;42.768;23.404;2023-08-12T12:59:13;2.00;;;1.80;;
11675;SDS011;5894;42.768;23.404;2023-08-12T13:01:40;2.17;;;1.80;;
11675;SDS011;5894;42.768;23.404;2023-08-12T13:04:07;2.10;;;1.90;;
11675;SDS011;5894;42.768;23.404;2023-08-12T13:06:34;4.85;;;2.20;;
11675;SDS011;5894;42.768;23.404;2023-08-12T13:09:02;5.97;;;2.50;;
11675;SDS011;5894;42.768;23.404;2023-08-12T13:11:31;16.67;;;3.08;;
11675;SDS011;5894;42.768;23.404;2023-08-12T13:14:00;12.65;;;2.10;;
11675;SDS011;5894;42.768;23.404;2023-08-12T13:16:29;12.60;;;2.40;;
11675;SDS011;5894;42.768;23.404;2023-08-12T13:18:56;8.38;;;1.77;;
11675;SDS011;5894;42.768;23.404;2023-08-12T13:21:24;5.00;;;2.20;;
11675;SDS011;5894;42.768;23.404;2023-08-12T13:23:51;3.33;;;1.90;;
11675;SDS011;5894;42.768;23.404;2023-08-12T13:26:20;5.65;;;2.25;;
11675;SDS011;5894;42.768;23.404;2023-08-12T13:28:47;12.57;;;2.78;;
11675;SDS011;5894;42.768;23.404;2023-08-12T13:31:16;2.15;;;1.70;;
11675;SDS011;5894;42.768;23.404;2023-08-12T13:33:44;1.60;;;1.50;;
11675;SDS011;5894;42.768;23.404;2023-08-12T13:36:11;2.35;;;1.52;;
11675;SDS011;5894;42.768;23.404;2023-08-12T13:38:38;1.83;;;1.67;;
11675;SDS011;5894;42.768;23.404;2023-08-12T13:41:05;3.03;;;1.60;;
11675;SDS011;5894;42.768;23.404;2023-08-12T13:43:32;2.90;;;1.70;;
11675;SDS011;5894;42.768;23.404;2023-08-12T13:46:00;2.55;;;1.55;;
11675;SDS011;5894;42.768;23.404;2023-08-12T13:48:27;2.58;;;1.60;;
11675;SDS011;5894;42.768;23.404;2023-08-12T13:50:56;2.95;;;1.50;;
11675;SDS011;5894;42.768;23.404;2023-08-12T13:53:23;2.83;;;1.58;;
11675;SDS011;5894;42.768;23.404;2023-08-12T13:55:50;3.35;;;1.60;;
11675;SDS011;5894;42.768;23.404;2023-08-12T13:58:17;3.47;;;1.63;;
11675;SDS011;5894;42.768;23.404;2023-08-12T14:00:45;3.13;;;1.42;;
11675;SDS011;5894;42.768;23.404;2023-08-12T14:03:12;14.13;;;2.22;;
11675;SDS011;5894;42.768;23.404;2023-08-12T14:05:39;1.60;;;1.50;;
11675;SDS011;5894;42.768;23.404;2023-08-12T14:08:07;3.75;;;2.03;;
11675;SDS011;5894;42.768;23.404;2023-08-12T14:10:34;1.67;;;1.50;;
11675;SDS011;5894;42.768;23.404;2023-08-12T14:13:01;4.40;;;1.75;;
11675;SDS011;5894;42.768;23.404;2023-08-12T14:15:28;1.92;;;1.73;;
11675;SDS011;5894;42.768;23.404;2023-08-12T14:17:55;1.63;;;1.40;;
11675;SDS011;5894;42.768;23.404;2023-08-12T14:20:22;5.25;;;1.60;;
11675;SDS011;5894;42.768;23.404;2023-08-12T14:22:49;2.50;;;1.38;;
11675;SDS011;5894;42.768;23.404;2023-08-12T14:25:18;1.70;;;1.60;;
11675;SDS011;5894;42.768;23.404;2023-08-12T14:27:45;3.35;;;2.13;;
11675;SDS011;5894;42.768;23.404;2023-08-12T14:30:12;1.75;;;1.65;;
11675;SDS011;5894;42.768;23.404;2023-08-12T14:32:40;2.83;;;1.63;;
11675;SDS011;5894;42.768;23.404;2023-08-12T14:35:07;5.53;;;1.70;;
11675;SDS011;5894;42.768;23.404;2023-08-12T14:37:34;2.75;;;1.80;;
11675;SDS011;5894;42.768;23.404;2023-08-12T14:40:01;2.65;;;1.73;;
11675;SDS011;5894;42.768;23.404;2023-08-12T14:42:31;2.25;;;1.95;;
11675;SDS011;5894;42.768;23.404;2023-08-12T14:44:57;1.67;;;1.50;;
11675;SDS011;5894;42.768;23.404;2023-08-12T14:47:24;2.90;;;1.90;;
11675;SDS011;5894;42.768;23.404;2023-08-12T14:49:51;3.58;;;1.70;;
11675;SDS011;5894;42.768;23.404;2023-08-12T14:52:19;12.52;;;3.00;;
11675;SDS011;5894;42.768;23.404;2023-08-12T14:54:47;12.80;;;3.28;;